sensor_id;sensor_type;location;lat;lon;timestamp;temperature;humidity
31967;DHT22;18496;52.042;6.812;2022-07-23T00:01:16;21.80;90.60
31967;DHT22;18496;52.042;6.812;2022-07-23T00:03:19;21.80;90.80
31967;DHT22;18496;52.042;6.812;2022-07-23T00:05:23;21.80;90.80
31967;DHT22;18496;52.042;6.812;2022-07-23T00:07:27;21.70;90.90
31967;DHT22;18496;52.042;6.812;2022-07-23T00:09:30;21.70;91.00
31967;DHT22;18496;52.042;6.812;2022-07-23T00:11:34;21.70;91.10
31967;DHT22;18496;52.042;6.812;2022-07-23T00:13:38;21.60;91.30
31967;DHT22;18496;52.042;6.812;2022-07-23T00:15:42;21.60;91.20
31967;DHT22;18496;52.042;6.812;2022-07-23T00:17:45;21.60;91.20
31967;DHT22;18496;52.042;6.812;2022-07-23T00:19:49;21.60;91.20
31967;DHT22;18496;52.042;6.812;2022-07-23T00:21:53;21.60;91.30
31967;DHT22;18496;52.042;6.812;2022-07-23T00:23:56;21.60;91.30
31967;DHT22;18496;52.042;6.812;2022-07-23T00:26:00;21.50;91.20
31967;DHT22;18496;52.042;6.812;2022-07-23T00:28:04;21.50;91.30
31967;DHT22;18496;52.042;6.812;2022-07-23T00:30:08;21.50;91.50
31967;DHT22;18496;52.042;6.812;2022-07-23T00:32:12;21.50;91.60
31967;DHT22;18496;52.042;6.812;2022-07-23T00:34:16;21.50;91.50
31967;DHT22;18496;52.042;6.812;2022-07-23T00:36:19;21.50;91.60
31967;DHT22;18496;52.042;6.812;2022-07-23T00:38:23;21.50;91.50
31967;DHT22;18496;52.042;6.812;2022-07-23T00:40:27;21.60;91.30
31967;DHT22;18496;52.042;6.812;2022-07-23T00:42:32;21.50;91.70
31967;DHT22;18496;52.042;6.812;2022-07-23T00:44:36;21.50;91.30
31967;DHT22;18496;52.042;6.812;2022-07-23T00:46:45;21.50;91.30
31967;DHT22;18496;52.042;6.812;2022-07-23T00:48:49;21.50;91.20
31967;DHT22;18496;52.042;6.812;2022-07-23T00:50:53;21.50;91.20
31967;DHT22;18496;52.042;6.812;2022-07-23T00:52:57;21.50;91.30
31967;DHT22;18496;52.042;6.812;2022-07-23T00:55:01;21.40;91.40
31967;DHT22;18496;52.042;6.812;2022-07-23T00:57:04;21.40;91.40
31967;DHT22;18496;52.042;6.812;2022-07-23T00:59:09;21.40;91.50
31967;DHT22;18496;52.042;6.812;2022-07-23T01:01:12;21.30;91.60
31967;DHT22;18496;52.042;6.812;2022-07-23T01:03:16;21.30;91.70
31967;DHT22;18496;52.042;6.812;2022-07-23T01:05:20;21.30;91.60
31967;DHT22;18496;52.042;6.812;2022-07-23T01:07:25;21.30;91.70
31967;DHT22;18496;52.042;6.812;2022-07-23T01:09:31;21.20;91.70
31967;DHT22;18496;52.042;6.812;2022-07-23T01:11:35;21.20;91.70
31967;DHT22;18496;52.042;6.812;2022-07-23T01:13:43;21.20;91.80
31967;DHT22;18496;52.042;6.812;2022-07-23T01:15:47;21.10;91.90
31967;DHT22;18496;52.042;6.812;2022-07-23T01:17:51;21.10;92.00
31967;DHT22;18496;52.042;6.812;2022-07-23T01:19:54;21.00;92.00
31967;DHT22;18496;52.042;6.812;2022-07-23T01:22:02;21.00;92.10
31967;DHT22;18496;52.042;6.812;2022-07-23T01:24:07;21.00;92.20
31967;DHT22;18496;52.042;6.812;2022-07-23T01:26:13;21.00;92.20
31967;DHT22;18496;52.042;6.812;2022-07-23T01:28:20;21.00;92.30
31967;DHT22;18496;52.042;6.812;2022-07-23T01:30:24;21.00;92.30
31967;DHT22;18496;52.042;6.812;2022-07-23T01:32:27;20.90;92.20
31967;DHT22;18496;52.042;6.812;2022-07-23T01:34:31;20.90;92.30
31967;DHT22;18496;52.042;6.812;2022-07-23T01:36:36;20.80;92.50
31967;DHT22;18496;52.042;6.812;2022-07-23T01:38:41;20.80;92.50
31967;DHT22;18496;52.042;6.812;2022-07-23T01:40:44;20.70;92.50
31967;DHT22;18496;52.042;6.812;2022-07-23T01:42:48;20.70;92.60
31967;DHT22;18496;52.042;6.812;2022-07-23T01:44:52;20.70;92.80
31967;DHT22;18496;52.042;6.812;2022-07-23T01:46:57;20.60;92.80
31967;DHT22;18496;52.042;6.812;2022-07-23T01:49:02;20.60;92.90
31967;DHT22;18496;52.042;6.812;2022-07-23T01:51:35;20.60;92.90
31967;DHT22;18496;52.042;6.812;2022-07-23T01:53:46;20.50;93.00
31967;DHT22;18496;52.042;6.812;2022-07-23T01:55:50;20.50;93.00
31967;DHT22;18496;52.042;6.812;2022-07-23T01:57:53;20.50;93.20
31967;DHT22;18496;52.042;6.812;2022-07-23T01:59:59;20.50;93.20
31967;DHT22;18496;52.042;6.812;2022-07-23T02:02:03;20.50;93.20
31967;DHT22;18496;52.042;6.812;2022-07-23T02:04:08;20.50;93.30
31967;DHT22;18496;52.042;6.812;2022-07-23T02:06:12;20.50;93.40
31967;DHT22;18496;52.042;6.812;2022-07-23T02:08:16;20.50;93.40
31967;DHT22;18496;52.042;6.812;2022-07-23T02:10:20;20.50;93.40
31967;DHT22;18496;52.042;6.812;2022-07-23T02:12:23;20.50;93.60
31967;DHT22;18496;52.042;6.812;2022-07-23T02:14:27;20.50;93.70
31967;DHT22;18496;52.042;6.812;2022-07-23T02:16:31;20.40;93.80
31967;DHT22;18496;52.042;6.812;2022-07-23T02:18:39;20.40;94.00
31967;DHT22;18496;52.042;6.812;2022-07-23T02:20:43;20.40;94.00
31967;DHT22;18496;52.042;6.812;2022-07-23T02:22:48;20.40;94.00
31967;DHT22;18496;52.042;6.812;2022-07-23T02:24:52;20.40;94.10
31967;DHT22;18496;52.042;6.812;2022-07-23T02:26:56;20.40;94.20
31967;DHT22;18496;52.042;6.812;2022-07-23T02:29:01;20.40;94.20
31967;DHT22;18496;52.042;6.812;2022-07-23T02:31:08;20.40;94.20
31967;DHT22;18496;52.042;6.812;2022-07-23T02:33:11;20.30;94.40
31967;DHT22;18496;52.042;6.812;2022-07-23T02:35:17;20.30;94.40
31967;DHT22;18496;52.042;6.812;2022-07-23T02:37:21;20.30;94.60
31967;DHT22;18496;52.042;6.812;2022-07-23T02:39:25;20.30;94.60
31967;DHT22;18496;52.042;6.812;2022-07-23T02:41:28;20.30;94.60
31967;DHT22;18496;52.042;6.812;2022-07-23T02:43:33;20.20;94.70
31967;DHT22;18496;52.042;6.812;2022-07-23T02:45:37;20.20;94.70
31967;DHT22;18496;52.042;6.812;2022-07-23T02:47:41;20.20;94.60
31967;DHT22;18496;52.042;6.812;2022-07-23T02:49:44;20.20;94.70
31967;DHT22;18496;52.042;6.812;2022-07-23T02:51:48;20.20;94.70
31967;DHT22;18496;52.042;6.812;2022-07-23T02:53:55;20.10;94.80
31967;DHT22;18496;52.042;6.812;2022-07-23T02:55:59;20.00;94.90
31967;DHT22;18496;52.042;6.812;2022-07-23T02:58:03;20.00;95.00
31967;DHT22;18496;52.042;6.812;2022-07-23T03:00:07;20.00;95.10
31967;DHT22;18496;52.042;6.812;2022-07-23T03:02:11;19.90;95.30
31967;DHT22;18496;52.042;6.812;2022-07-23T03:04:16;19.90;95.40
31967;DHT22;18496;52.042;6.812;2022-07-23T03:06:26;19.80;95.40
31967;DHT22;18496;52.042;6.812;2022-07-23T03:08:29;19.80;95.50
31967;DHT22;18496;52.042;6.812;2022-07-23T03:10:33;19.80;95.60
31967;DHT22;18496;52.042;6.812;2022-07-23T03:12:37;19.80;95.80
31967;DHT22;18496;52.042;6.812;2022-07-23T03:14:41;19.70;95.70
31967;DHT22;18496;52.042;6.812;2022-07-23T03:16:45;19.70;95.80
31967;DHT22;18496;52.042;6.812;2022-07-23T03:18:48;19.70;95.80
31967;DHT22;18496;52.042;6.812;2022-07-23T03:20:52;19.70;95.80
31967;DHT22;18496;52.042;6.812;2022-07-23T03:22:56;19.70;95.70
31967;DHT22;18496;52.042;6.812;2022-07-23T03:24:59;19.70;95.60
31967;DHT22;18496;52.042;6.812;2022-07-23T03:27:11;19.70;95.70
31967;DHT22;18496;52.042;6.812;2022-07-23T03:29:14;19.70;96.10
31967;DHT22;18496;52.042;6.812;2022-07-23T03:31:19;19.60;95.80
31967;DHT22;18496;52.042;6.812;2022-07-23T03:33:26;19.60;95.80
31967;DHT22;18496;52.042;6.812;2022-07-23T03:35:39;19.60;95.70
31967;DHT22;18496;52.042;6.812;2022-07-23T03:37:53;19.60;95.90
31967;DHT22;18496;52.042;6.812;2022-07-23T03:39:56;19.60;95.90
31967;DHT22;18496;52.042;6.812;2022-07-23T03:42:00;19.60;96.20
31967;DHT22;18496;52.042;6.812;2022-07-23T03:44:05;19.50;95.90
31967;DHT22;18496;52.042;6.812;2022-07-23T03:46:15;19.40;96.20
31967;DHT22;18496;52.042;6.812;2022-07-23T03:48:33;19.40;96.30
31967;DHT22;18496;52.042;6.812;2022-07-23T03:50:37;19.40;96.30
31967;DHT22;18496;52.042;6.812;2022-07-23T03:52:41;19.40;96.40
31967;DHT22;18496;52.042;6.812;2022-07-23T03:54:45;19.40;96.40
31967;DHT22;18496;52.042;6.812;2022-07-23T03:56:48;19.40;96.30
31967;DHT22;18496;52.042;6.812;2022-07-23T03:58:52;19.30;96.30
31967;DHT22;18496;52.042;6.812;2022-07-23T04:00:55;19.30;96.60
31967;DHT22;18496;52.042;6.812;2022-07-23T04:02:59;19.30;96.70
31967;DHT22;18496;52.042;6.812;2022-07-23T04:05:05;19.30;97.10
31967;DHT22;18496;52.042;6.812;2022-07-23T04:07:09;19.30;96.90
31967;DHT22;18496;52.042;6.812;2022-07-23T04:09:12;19.20;96.90
31967;DHT22;18496;52.042;6.812;2022-07-23T04:11:16;19.20;97.10
31967;DHT22;18496;52.042;6.812;2022-07-23T04:13:20;19.20;97.20
31967;DHT22;18496;52.042;6.812;2022-07-23T04:15:25;19.20;97.30
31967;DHT22;18496;52.042;6.812;2022-07-23T04:17:28;19.20;97.30
31967;DHT22;18496;52.042;6.812;2022-07-23T04:19:32;19.10;97.30
31967;DHT22;18496;52.042;6.812;2022-07-23T04:21:41;19.10;97.40
31967;DHT22;18496;52.042;6.812;2022-07-23T04:23:44;19.10;97.50
31967;DHT22;18496;52.042;6.812;2022-07-23T04:25:49;19.20;97.50
31967;DHT22;18496;52.042;6.812;2022-07-23T04:27:53;19.20;97.50
31967;DHT22;18496;52.042;6.812;2022-07-23T04:29:57;19.20;97.60
31967;DHT22;18496;52.042;6.812;2022-07-23T04:32:01;19.10;97.50
31967;DHT22;18496;52.042;6.812;2022-07-23T04:34:05;19.10;97.80
31967;DHT22;18496;52.042;6.812;2022-07-23T04:36:09;19.10;97.80
31967;DHT22;18496;52.042;6.812;2022-07-23T04:38:13;19.00;98.00
31967;DHT22;18496;52.042;6.812;2022-07-23T04:40:18;19.00;98.20
31967;DHT22;18496;52.042;6.812;2022-07-23T04:42:21;19.00;98.30
31967;DHT22;18496;52.042;6.812;2022-07-23T04:44:25;19.00;98.50
31967;DHT22;18496;52.042;6.812;2022-07-23T04:46:29;19.00;98.40
31967;DHT22;18496;52.042;6.812;2022-07-23T04:48:34;19.00;98.50
31967;DHT22;18496;52.042;6.812;2022-07-23T04:50:45;19.00;98.50
31967;DHT22;18496;52.042;6.812;2022-07-23T04:52:59;19.00;98.80
31967;DHT22;18496;52.042;6.812;2022-07-23T04:55:04;18.90;98.80
31967;DHT22;18496;52.042;6.812;2022-07-23T04:57:08;18.90;99.00
31967;DHT22;18496;52.042;6.812;2022-07-23T04:59:11;18.90;99.00
31967;DHT22;18496;52.042;6.812;2022-07-23T05:01:15;18.90;99.00
31967;DHT22;18496;52.042;6.812;2022-07-23T05:03:19;19.00;99.00
31967;DHT22;18496;52.042;6.812;2022-07-23T05:05:24;19.00;99.20
31967;DHT22;18496;52.042;6.812;2022-07-23T05:07:31;18.90;99.40
31967;DHT22;18496;52.042;6.812;2022-07-23T05:09:35;18.90;99.50
31967;DHT22;18496;52.042;6.812;2022-07-23T05:11:39;18.90;99.60
31967;DHT22;18496;52.042;6.812;2022-07-23T05:13:43;18.90;99.70
31967;DHT22;18496;52.042;6.812;2022-07-23T05:15:46;18.90;99.70
31967;DHT22;18496;52.042;6.812;2022-07-23T05:17:50;19.00;99.80
31967;DHT22;18496;52.042;6.812;2022-07-23T05:19:55;19.00;99.80
31967;DHT22;18496;52.042;6.812;2022-07-23T05:21:58;19.10;99.90
31967;DHT22;18496;52.042;6.812;2022-07-23T05:24:03;19.10;99.80
31967;DHT22;18496;52.042;6.812;2022-07-23T05:26:06;19.20;99.80
31967;DHT22;18496;52.042;6.812;2022-07-23T05:28:10;19.20;99.70
31967;DHT22;18496;52.042;6.812;2022-07-23T05:30:15;19.10;99.80
31967;DHT22;18496;52.042;6.812;2022-07-23T05:32:21;19.10;99.90
31967;DHT22;18496;52.042;6.812;2022-07-23T05:34:32;19.10;99.90
31967;DHT22;18496;52.042;6.812;2022-07-23T05:36:37;19.10;99.90
31967;DHT22;18496;52.042;6.812;2022-07-23T05:38:41;19.10;99.90
31967;DHT22;18496;52.042;6.812;2022-07-23T05:40:44;19.10;99.90
31967;DHT22;18496;52.042;6.812;2022-07-23T05:42:48;19.10;99.90
31967;DHT22;18496;52.042;6.812;2022-07-23T05:44:53;19.20;99.90
31967;DHT22;18496;52.042;6.812;2022-07-23T05:46:56;19.20;99.90
31967;DHT22;18496;52.042;6.812;2022-07-23T05:49:03;19.30;99.90
31967;DHT22;18496;52.042;6.812;2022-07-23T05:51:29;19.30;99.90
31967;DHT22;18496;52.042;6.812;2022-07-23T05:53:35;19.40;99.90
31967;DHT22;18496;52.042;6.812;2022-07-23T05:55:46;19.40;99.90
31967;DHT22;18496;52.042;6.812;2022-07-23T05:57:50;19.40;99.90
31967;DHT22;18496;52.042;6.812;2022-07-23T05:59:53;19.50;99.90
31967;DHT22;18496;52.042;6.812;2022-07-23T06:01:57;19.50;99.90
31967;DHT22;18496;52.042;6.812;2022-07-23T06:04:01;19.50;99.90
31967;DHT22;18496;52.042;6.812;2022-07-23T06:09:02;19.70;99.90
31967;DHT22;18496;52.042;6.812;2022-07-23T06:11:06;19.70;99.80
31967;DHT22;18496;52.042;6.812;2022-07-23T06:13:10;19.70;99.90
31967;DHT22;18496;52.042;6.812;2022-07-23T06:15:13;19.70;99.80
31967;DHT22;18496;52.042;6.812;2022-07-23T06:17:17;19.70;99.60
31967;DHT22;18496;52.042;6.812;2022-07-23T06:19:21;19.70;99.90
31967;DHT22;18496;52.042;6.812;2022-07-23T06:21:25;19.70;99.90
31967;DHT22;18496;52.042;6.812;2022-07-23T06:23:29;19.80;99.70
31967;DHT22;18496;52.042;6.812;2022-07-23T06:25:32;19.80;99.90
31967;DHT22;18496;52.042;6.812;2022-07-23T06:27:36;19.80;99.80
31967;DHT22;18496;52.042;6.812;2022-07-23T06:29:40;19.90;99.50
31967;DHT22;18496;52.042;6.812;2022-07-23T06:31:44;19.90;99.20
31967;DHT22;18496;52.042;6.812;2022-07-23T06:33:47;19.90;99.20
31967;DHT22;18496;52.042;6.812;2022-07-23T06:35:51;19.90;99.00
31967;DHT22;18496;52.042;6.812;2022-07-23T06:37:55;20.00;98.80
31967;DHT22;18496;52.042;6.812;2022-07-23T06:39:59;20.00;99.00
31967;DHT22;18496;52.042;6.812;2022-07-23T06:42:03;20.10;98.90
31967;DHT22;18496;52.042;6.812;2022-07-23T06:44:15;20.20;98.60
31967;DHT22;18496;52.042;6.812;2022-07-23T06:46:20;20.30;98.50
31967;DHT22;18496;52.042;6.812;2022-07-23T06:48:24;20.30;98.30
31967;DHT22;18496;52.042;6.812;2022-07-23T06:50:29;20.40;98.00
31967;DHT22;18496;52.042;6.812;2022-07-23T06:52:32;20.40;97.60
31967;DHT22;18496;52.042;6.812;2022-07-23T06:54:36;20.50;97.90
31967;DHT22;18496;52.042;6.812;2022-07-23T06:56:40;20.60;97.20
31967;DHT22;18496;52.042;6.812;2022-07-23T06:58:43;20.60;97.30
31967;DHT22;18496;52.042;6.812;2022-07-23T07:00:47;20.70;97.20
31967;DHT22;18496;52.042;6.812;2022-07-23T07:02:53;20.70;97.00
31967;DHT22;18496;52.042;6.812;2022-07-23T07:04:57;20.70;96.90
31967;DHT22;18496;52.042;6.812;2022-07-23T07:07:01;20.70;97.00
31967;DHT22;18496;52.042;6.812;2022-07-23T07:09:04;20.80;96.70
31967;DHT22;18496;52.042;6.812;2022-07-23T07:11:08;20.80;96.80
31967;DHT22;18496;52.042;6.812;2022-07-23T07:13:12;20.80;96.90
31967;DHT22;18496;52.042;6.812;2022-07-23T07:15:16;20.80;96.90
31967;DHT22;18496;52.042;6.812;2022-07-23T07:17:20;20.90;96.70
31967;DHT22;18496;52.042;6.812;2022-07-23T07:19:23;21.00;96.60
31967;DHT22;18496;52.042;6.812;2022-07-23T07:21:27;21.00;95.90
31967;DHT22;18496;52.042;6.812;2022-07-23T07:23:30;21.10;95.10
31967;DHT22;18496;52.042;6.812;2022-07-23T07:25:34;21.10;95.00
31967;DHT22;18496;52.042;6.812;2022-07-23T07:27:38;21.00;94.90
31967;DHT22;18496;52.042;6.812;2022-07-23T07:29:42;21.10;94.70
31967;DHT22;18496;52.042;6.812;2022-07-23T07:31:45;21.10;94.80
31967;DHT22;18496;52.042;6.812;2022-07-23T07:33:49;21.00;94.80
31967;DHT22;18496;52.042;6.812;2022-07-23T07:35:53;21.00;94.60
31967;DHT22;18496;52.042;6.812;2022-07-23T07:37:56;21.00;94.10
31967;DHT22;18496;52.042;6.812;2022-07-23T07:40:00;21.00;94.10
31967;DHT22;18496;52.042;6.812;2022-07-23T07:42:04;21.00;94.40
31967;DHT22;18496;52.042;6.812;2022-07-23T07:44:08;21.00;94.30
31967;DHT22;18496;52.042;6.812;2022-07-23T07:46:11;21.10;94.20
31967;DHT22;18496;52.042;6.812;2022-07-23T07:48:15;21.10;94.50
31967;DHT22;18496;52.042;6.812;2022-07-23T07:50:20;21.20;94.60
31967;DHT22;18496;52.042;6.812;2022-07-23T07:52:24;21.20;93.90
31967;DHT22;18496;52.042;6.812;2022-07-23T07:54:27;21.20;93.70
31967;DHT22;18496;52.042;6.812;2022-07-23T07:56:31;21.20;94.00
31967;DHT22;18496;52.042;6.812;2022-07-23T07:58:34;21.20;93.90
31967;DHT22;18496;52.042;6.812;2022-07-23T08:00:38;21.20;93.40
31967;DHT22;18496;52.042;6.812;2022-07-23T08:02:47;21.30;93.60
31967;DHT22;18496;52.042;6.812;2022-07-23T08:04:51;21.30;93.30
31967;DHT22;18496;52.042;6.812;2022-07-23T08:06:55;21.40;93.00
31967;DHT22;18496;52.042;6.812;2022-07-23T08:08:58;21.40;92.70
31967;DHT22;18496;52.042;6.812;2022-07-23T08:11:02;21.50;92.60
31967;DHT22;18496;52.042;6.812;2022-07-23T08:13:06;21.50;92.30
31967;DHT22;18496;52.042;6.812;2022-07-23T08:15:10;21.50;91.90
31967;DHT22;18496;52.042;6.812;2022-07-23T08:17:13;21.50;91.90
31967;DHT22;18496;52.042;6.812;2022-07-23T08:19:17;21.60;92.20
31967;DHT22;18496;52.042;6.812;2022-07-23T08:21:21;21.70;92.10
31967;DHT22;18496;52.042;6.812;2022-07-23T08:23:24;21.80;91.60
31967;DHT22;18496;52.042;6.812;2022-07-23T08:25:31;21.80;91.60
31967;DHT22;18496;52.042;6.812;2022-07-23T08:27:35;21.90;91.50
31967;DHT22;18496;52.042;6.812;2022-07-23T08:29:39;21.90;90.80
31967;DHT22;18496;52.042;6.812;2022-07-23T08:31:43;22.00;90.20
31967;DHT22;18496;52.042;6.812;2022-07-23T08:33:46;22.00;91.10
31967;DHT22;18496;52.042;6.812;2022-07-23T08:35:51;22.10;90.40
31967;DHT22;18496;52.042;6.812;2022-07-23T08:37:57;22.10;90.50
31967;DHT22;18496;52.042;6.812;2022-07-23T08:40:03;22.10;90.70
31967;DHT22;18496;52.042;6.812;2022-07-23T08:42:10;22.20;89.70
31967;DHT22;18496;52.042;6.812;2022-07-23T08:44:16;22.20;88.80
31967;DHT22;18496;52.042;6.812;2022-07-23T08:46:20;22.00;88.90
31967;DHT22;18496;52.042;6.812;2022-07-23T08:48:26;22.00;88.10
31967;DHT22;18496;52.042;6.812;2022-07-23T08:50:30;21.90;87.10
31967;DHT22;18496;52.042;6.812;2022-07-23T08:52:36;21.90;88.00
31967;DHT22;18496;52.042;6.812;2022-07-23T08:54:39;22.00;88.80
31967;DHT22;18496;52.042;6.812;2022-07-23T08:56:43;22.00;88.40
31967;DHT22;18496;52.042;6.812;2022-07-23T08:58:47;22.00;88.50
31967;DHT22;18496;52.042;6.812;2022-07-23T09:00:51;22.10;88.60
31967;DHT22;18496;52.042;6.812;2022-07-23T09:02:55;22.20;86.80
31967;DHT22;18496;52.042;6.812;2022-07-23T09:04:58;22.20;86.70
31967;DHT22;18496;52.042;6.812;2022-07-23T09:07:02;22.30;86.70
31967;DHT22;18496;52.042;6.812;2022-07-23T09:09:19;22.30;87.90
31967;DHT22;18496;52.042;6.812;2022-07-23T09:11:23;22.40;86.30
31967;DHT22;18496;52.042;6.812;2022-07-23T09:13:33;22.40;86.60
31967;DHT22;18496;52.042;6.812;2022-07-23T09:15:48;22.40;86.80
31967;DHT22;18496;52.042;6.812;2022-07-23T09:17:52;22.50;86.80
31967;DHT22;18496;52.042;6.812;2022-07-23T09:20:16;22.60;88.10
31967;DHT22;18496;52.042;6.812;2022-07-23T09:22:25;22.60;86.40
31967;DHT22;18496;52.042;6.812;2022-07-23T09:24:32;22.70;86.60
31967;DHT22;18496;52.042;6.812;2022-07-23T09:26:40;22.70;86.00
31967;DHT22;18496;52.042;6.812;2022-07-23T09:30:59;22.90;83.40
31967;DHT22;18496;52.042;6.812;2022-07-23T09:35:10;23.00;84.10
31967;DHT22;18496;52.042;6.812;2022-07-23T09:37:18;22.90;85.70
31967;DHT22;18496;52.042;6.812;2022-07-23T09:39:26;23.00;85.10
31967;DHT22;18496;52.042;6.812;2022-07-23T09:41:35;23.00;83.80
31967;DHT22;18496;52.042;6.812;2022-07-23T09:43:39;23.10;83.80
31967;DHT22;18496;52.042;6.812;2022-07-23T09:45:43;23.10;83.80
31967;DHT22;18496;52.042;6.812;2022-07-23T09:47:47;23.20;83.10
31967;DHT22;18496;52.042;6.812;2022-07-23T09:50:07;23.20;84.00
31967;DHT22;18496;52.042;6.812;2022-07-23T09:52:12;23.30;83.80
31967;DHT22;18496;52.042;6.812;2022-07-23T09:54:27;23.40;85.70
31967;DHT22;18496;52.042;6.812;2022-07-23T09:56:35;23.50;84.40
31967;DHT22;18496;52.042;6.812;2022-07-23T09:58:40;23.60;82.30
31967;DHT22;18496;52.042;6.812;2022-07-23T10:00:53;23.70;83.00
31967;DHT22;18496;52.042;6.812;2022-07-23T10:02:58;23.80;79.60
31967;DHT22;18496;52.042;6.812;2022-07-23T10:05:06;23.70;79.30
31967;DHT22;18496;52.042;6.812;2022-07-23T10:07:51;23.70;81.90
31967;DHT22;18496;52.042;6.812;2022-07-23T10:10:14;23.80;81.40
31967;DHT22;18496;52.042;6.812;2022-07-23T10:12:38;23.90;81.30
31967;DHT22;18496;52.042;6.812;2022-07-23T10:14:56;24.10;79.50
31967;DHT22;18496;52.042;6.812;2022-07-23T10:17:01;24.20;78.10
31967;DHT22;18496;52.042;6.812;2022-07-23T10:19:05;24.20;77.70
31967;DHT22;18496;52.042;6.812;2022-07-23T10:21:10;24.30;78.20
31967;DHT22;18496;52.042;6.812;2022-07-23T10:26:12;24.40;75.90
31967;DHT22;18496;52.042;6.812;2022-07-23T10:35:36;24.80;75.60
31967;DHT22;18496;52.042;6.812;2022-07-23T10:37:49;24.80;76.60
31967;DHT22;18496;52.042;6.812;2022-07-23T10:40:09;24.80;76.80
31967;DHT22;18496;52.042;6.812;2022-07-23T10:42:15;25.00;75.60
31967;DHT22;18496;52.042;6.812;2022-07-23T10:44:20;24.90;75.40
31967;DHT22;18496;52.042;6.812;2022-07-23T10:46:27;25.00;74.40
31967;DHT22;18496;52.042;6.812;2022-07-23T10:49:21;24.90;74.60
31967;DHT22;18496;52.042;6.812;2022-07-23T10:51:26;25.00;74.00
31967;DHT22;18496;52.042;6.812;2022-07-23T10:56:01;25.00;73.30
31967;DHT22;18496;52.042;6.812;2022-07-23T10:58:07;25.00;73.20
31967;DHT22;18496;52.042;6.812;2022-07-23T11:00:22;24.90;73.10
31967;DHT22;18496;52.042;6.812;2022-07-23T11:02:28;24.90;74.80
31967;DHT22;18496;52.042;6.812;2022-07-23T11:04:49;25.00;74.80
31967;DHT22;18496;52.042;6.812;2022-07-23T11:09:25;25.20;74.30
31967;DHT22;18496;52.042;6.812;2022-07-23T11:11:32;25.30;72.70
31967;DHT22;18496;52.042;6.812;2022-07-23T11:13:42;25.30;73.30
31967;DHT22;18496;52.042;6.812;2022-07-23T11:18:10;25.30;73.20
31967;DHT22;18496;52.042;6.812;2022-07-23T11:20:17;25.30;72.50
31967;DHT22;18496;52.042;6.812;2022-07-23T11:22:55;25.30;72.90
31967;DHT22;18496;52.042;6.812;2022-07-23T11:25:05;25.40;72.90
31967;DHT22;18496;52.042;6.812;2022-07-23T11:27:09;25.60;73.40
31967;DHT22;18496;52.042;6.812;2022-07-23T11:31:32;25.70;70.80
31967;DHT22;18496;52.042;6.812;2022-07-23T11:33:36;25.60;72.70
31967;DHT22;18496;52.042;6.812;2022-07-23T11:35:59;25.70;73.50
31967;DHT22;18496;52.042;6.812;2022-07-23T11:40:18;25.90;71.70
31967;DHT22;18496;52.042;6.812;2022-07-23T11:42:21;26.00;71.40
31967;DHT22;18496;52.042;6.812;2022-07-23T11:44:32;26.00;70.80
31967;DHT22;18496;52.042;6.812;2022-07-23T11:46:35;26.00;69.50
31967;DHT22;18496;52.042;6.812;2022-07-23T11:48:39;26.00;71.30
31967;DHT22;18496;52.042;6.812;2022-07-23T11:50:43;26.10;71.90
31967;DHT22;18496;52.042;6.812;2022-07-23T11:52:47;26.20;70.40
31967;DHT22;18496;52.042;6.812;2022-07-23T11:56:58;26.40;69.80
31967;DHT22;18496;52.042;6.812;2022-07-23T11:59:02;26.50;68.70
31967;DHT22;18496;52.042;6.812;2022-07-23T12:01:06;26.60;69.90
31967;DHT22;18496;52.042;6.812;2022-07-23T12:03:10;26.70;69.00
31967;DHT22;18496;52.042;6.812;2022-07-23T12:05:18;26.90;67.40
31967;DHT22;18496;52.042;6.812;2022-07-23T12:07:37;27.00;67.90
31967;DHT22;18496;52.042;6.812;2022-07-23T12:09:44;27.00;67.30
31967;DHT22;18496;52.042;6.812;2022-07-23T12:12:00;27.20;65.40
31967;DHT22;18496;52.042;6.812;2022-07-23T12:14:05;27.20;65.00
31967;DHT22;18496;52.042;6.812;2022-07-23T12:16:09;27.20;64.80
31967;DHT22;18496;52.042;6.812;2022-07-23T12:18:19;27.20;66.50
31967;DHT22;18496;52.042;6.812;2022-07-23T12:20:26;27.20;66.00
31967;DHT22;18496;52.042;6.812;2022-07-23T12:22:42;27.30;64.40
31967;DHT22;18496;52.042;6.812;2022-07-23T12:24:57;27.20;64.80
31967;DHT22;18496;52.042;6.812;2022-07-23T12:27:10;27.10;65.00
31967;DHT22;18496;52.042;6.812;2022-07-23T12:29:14;27.10;64.70
31967;DHT22;18496;52.042;6.812;2022-07-23T12:31:27;27.10;65.60
31967;DHT22;18496;52.042;6.812;2022-07-23T12:33:39;27.00;65.80
31967;DHT22;18496;52.042;6.812;2022-07-23T12:35:45;27.10;65.60
31967;DHT22;18496;52.042;6.812;2022-07-23T12:37:59;27.20;65.70
31967;DHT22;18496;52.042;6.812;2022-07-23T12:40:51;27.40;64.90
31967;DHT22;18496;52.042;6.812;2022-07-23T12:43:01;27.40;63.50
31967;DHT22;18496;52.042;6.812;2022-07-23T12:45:10;27.60;64.70
31967;DHT22;18496;52.042;6.812;2022-07-23T12:47:17;27.70;64.80
31967;DHT22;18496;52.042;6.812;2022-07-23T12:49:30;27.80;63.50
31967;DHT22;18496;52.042;6.812;2022-07-23T12:51:39;28.00;62.90
31967;DHT22;18496;52.042;6.812;2022-07-23T12:53:52;28.00;61.30
31967;DHT22;18496;52.042;6.812;2022-07-23T12:56:06;28.00;62.00
31967;DHT22;18496;52.042;6.812;2022-07-23T12:58:13;28.10;62.70
31967;DHT22;18496;52.042;6.812;2022-07-23T13:00:19;28.20;62.20
31967;DHT22;18496;52.042;6.812;2022-07-23T13:02:23;28.40;61.20
31967;DHT22;18496;52.042;6.812;2022-07-23T13:04:27;28.50;61.30
31967;DHT22;18496;52.042;6.812;2022-07-23T13:06:33;28.60;61.10
31967;DHT22;18496;52.042;6.812;2022-07-23T13:08:38;28.70;60.90
31967;DHT22;18496;52.042;6.812;2022-07-23T13:10:43;28.80;60.90
31967;DHT22;18496;52.042;6.812;2022-07-23T13:12:50;28.80;60.30
31967;DHT22;18496;52.042;6.812;2022-07-23T13:14:53;28.90;60.90
31967;DHT22;18496;52.042;6.812;2022-07-23T13:16:57;29.10;61.50
31967;DHT22;18496;52.042;6.812;2022-07-23T13:19:01;29.20;58.70
31967;DHT22;18496;52.042;6.812;2022-07-23T13:21:05;29.30;59.10
31967;DHT22;18496;52.042;6.812;2022-07-23T13:23:08;29.30;58.70
31967;DHT22;18496;52.042;6.812;2022-07-23T13:25:12;29.30;58.70
31967;DHT22;18496;52.042;6.812;2022-07-23T13:27:15;29.30;59.10
31967;DHT22;18496;52.042;6.812;2022-07-23T13:29:19;29.30;59.30
31967;DHT22;18496;52.042;6.812;2022-07-23T13:31:23;29.30;57.80
31967;DHT22;18496;52.042;6.812;2022-07-23T13:33:27;29.20;58.10
31967;DHT22;18496;52.042;6.812;2022-07-23T13:35:31;29.00;57.90
31967;DHT22;18496;52.042;6.812;2022-07-23T13:37:35;28.90;59.40
31967;DHT22;18496;52.042;6.812;2022-07-23T13:39:39;29.00;59.10
31967;DHT22;18496;52.042;6.812;2022-07-23T13:41:43;28.90;58.70
31967;DHT22;18496;52.042;6.812;2022-07-23T13:43:46;29.10;59.40
31967;DHT22;18496;52.042;6.812;2022-07-23T13:45:51;29.20;58.90
31967;DHT22;18496;52.042;6.812;2022-07-23T13:47:55;29.30;58.40